Time;durP1;ratioP1;P1;durP2;ratioP2;P2;SDS_P1;SDS_P2;PMS_P1;PMS_P2;Temp;Humidity;BMP_temperature;BMP_pressure;BME280_temperature;BME280_humidity;BME280_pressure;Samples;Min_cycle;Max_cycle;Signal;HPM_P1;HPM_P2
2023/05/03 00:01:38;;;;;;;;;;;;;;;31.29;56.69;100948.84;5104868;27;66895;-42
2023/05/03 00:04:08;;;;;;;;;;;;;;;31.32;57.67;100934.84;5111212;27;70180;-43
2023/05/03 00:06:38;;;;;;;;;;;;;;;31.36;57.98;100944.19;5103448;27;66762;-42
2023/05/03 00:09:13;;;;;;;;;;;;;;;31.39;57.89;100950.00;5120071;27;70414;-42
2023/05/03 00:11:43;;;;;;;;;;;;;;;31.45;58.26;100944.75;5119870;27;64670;-41
2023/05/03 00:14:13;;;;;;;;;;;;;;;31.46;59.97;100949.13;5137194;27;69154;-41
2023/05/03 00:16:43;;;;;;;;;;;;;;;31.52;60.09;100953.66;5138610;27;67476;-46
2023/05/03 00:19:19;;;;;;;;;;;;;;;31.54;60.53;100957.81;5131566;27;70578;-44
2023/05/03 00:21:59;;;;;;;;;;;;;;;31.56;61.50;100969.25;5136778;27;66227;-43
2023/05/03 00:24:34;;;;;;;;;;;;;;;31.61;61.45;100971.28;5135609;27;69753;-42
2023/05/03 00:27:05;;;;;;;;;;;;;;;31.64;61.71;100973.56;5139382;27;66722;-42
2023/05/03 00:29:35;;;;;;;;;;;;;;;31.65;62.06;100979.81;5133747;27;69781;-41
2023/05/03 00:32:11;;;;;;;;;;;;;;;31.69;62.12;100990.00;5135180;27;67033;-42
2023/05/03 00:34:41;;;;;;;;;;;;;;;31.73;62.42;100983.09;5135156;27;69284;-42
2023/05/03 00:37:12;;;;;;;;;;;;;;;31.74;62.49;100992.03;5118598;27;68694;-41
2023/05/03 00:39:44;;;;;;;;;;;;;;;31.77;62.28;100994.31;5136881;27;69607;-43
2023/05/03 00:42:20;;;;;;;;;;;;;;;31.81;62.42;100995.50;5126361;27;66178;-43
2023/05/03 00:44:50;;;;;;;;;;;;;;;31.86;62.73;100998.38;5106981;27;70578;-41
2023/05/03 00:47:29;;;;;;;;;;;;;;;31.88;62.58;101004.41;5104125;27;65628;-41
2023/05/03 00:50:02;;;;;;;;;;;;;;;31.90;62.22;101013.16;5126114;27;69452;-40
2023/05/03 00:52:33;;;;;;;;;;;;;;;31.92;62.50;101012.97;5113449;27;66163;-41
2023/05/03 00:55:13;;;;;;;;;;;;;;;31.95;62.03;101017.94;5112722;27;71663;-43
2023/05/03 00:57:43;;;;;;;;;;;;;;;32.00;62.11;101018.91;5119000;27;65701;-43
2023/05/03 01:00:31;;;;;;;;;;;;;;;32.02;61.53;101022.25;5109567;27;69796;-40
2023/05/03 01:03:02;;;;;;;;;;;;;;;32.02;60.26;101016.81;5102349;27;64768;-40
2023/05/03 01:05:37;;;;;;;;;;;;;;;32.04;59.34;101039.13;5124801;27;69764;-40
2023/05/03 01:08:51;;;;;;;;;;;;;;;32.09;59.14;101037.63;5114623;27;59965;-40
2023/05/03 01:11:23;;;;;;;;;;;;;;;32.11;58.59;101038.22;5043361;28;70757;-41
2023/05/03 01:14:00;;;;;;;;;;;;;;;32.15;58.26;101029.44;5035241;28;66519;-40
2023/05/03 01:16:33;;;;;;;;;;;;;;;32.18;58.13;101026.25;5078116;27;69292;-41
2023/05/03 01:19:19;;;;;;;;;;;;;;;32.22;57.81;101034.75;5122519;27;66346;-41
2023/05/03 01:21:56;;;;;;;;;;;;;;;32.25;57.49;101037.03;5102660;27;69770;-40
2023/05/03 01:24:28;;;;;;;;;;;;;;;32.28;57.32;101044.72;5115953;27;66641;-41
2023/05/03 01:26:58;;;;;;;;;;;;;;;32.31;57.39;101040.72;5106671;27;68998;-41
2023/05/03 01:29:28;;;;;;;;;;;;;;;32.34;57.22;101042.97;5118036;27;66956;-40
2023/05/03 01:32:05;;;;;;;;;;;;;;;32.37;57.10;101045.22;5118714;27;70517;-40
2023/05/03 01:34:38;;;;;;;;;;;;;;;32.39;56.72;101041.25;5125554;27;66501;-40
2023/05/03 01:37:10;;;;;;;;;;;;;;;32.41;57.01;101044.56;5094615;27;70666;-41
2023/05/03 01:39:45;;;;;;;;;;;;;;;32.44;56.67;101041.41;5120409;27;65050;-41
2023/05/03 01:42:16;;;;;;;;;;;;;;;32.46;56.61;101042.03;5118122;27;69736;-41
2023/05/03 01:44:48;;;;;;;;;;;;;;;32.51;56.41;101040.50;5098647;27;66335;-41
2023/05/03 01:47:19;;;;;;;;;;;;;;;32.52;56.45;101040.28;5120920;27;69453;-40
2023/05/03 01:49:49;;;;;;;;;;;;;;;32.55;56.33;101044.44;5125209;27;67032;-41
2023/05/03 01:52:22;;;;;;;;;;;;;;;32.58;56.37;101043.97;5118788;27;69903;-41
2023/05/03 01:54:52;;;;;;;;;;;;;;;32.60;56.28;101052.75;5104770;27;65986;-40
2023/05/03 01:57:23;;;;;;;;;;;;;;;32.63;56.27;101041.41;5119491;27;70725;-42
2023/05/03 01:59:53;;;;;;;;;;;;;;;32.65;56.32;101047.44;5121442;27;67296;-42
2023/05/03 02:02:24;;;;;;;;;;;;;;;32.67;55.97;101048.03;5118005;27;69814;-41
2023/05/03 02:04:55;;;;;;;;;;;;;;;32.70;56.04;101053.00;5107056;27;66655;-40
2023/05/03 02:07:25;;;;;;;;;;;;;;;32.72;56.06;101056.34;5125570;27;69867;-42
2023/05/03 02:09:55;;;;;;;;;;;;;;;32.75;55.75;101058.59;5092791;27;66057;-41
2023/05/03 02:12:25;;;;;;;;;;;;;;;32.77;55.92;101064.63;5101592;27;70867;-41
2023/05/03 02:14:56;;;;;;;;;;;;;;;32.81;55.95;101059.56;5088118;27;66202;-41
2023/05/03 02:17:26;;;;;;;;;;;;;;;32.83;55.88;101058.28;5121280;27;70477;-39
2023/05/03 02:19:57;;;;;;;;;;;;;;;32.87;55.36;101064.06;5129335;27;66334;-40
2023/05/03 02:22:27;;;;;;;;;;;;;;;32.90;55.55;101059.03;5116220;27;69460;-42
2023/05/03 02:24:57;;;;;;;;;;;;;;;32.94;55.09;101065.66;5122398;27;65485;-41
2023/05/03 02:27:28;;;;;;;;;;;;;;;32.98;55.13;101060.56;5101760;27;70759;-39
2023/05/03 02:29:58;;;;;;;;;;;;;;;33.03;55.79;101062.63;5087464;27;65993;-41
2023/05/03 02:32:30;;;;;;;;;;;;;;;33.08;55.26;101062.78;5110048;27;70338;-40
2023/05/03 02:35:01;;;;;;;;;;;;;;;33.11;54.83;101065.84;5105237;27;66509;-41
2023/05/03 02:37:32;;;;;;;;;;;;;;;33.15;55.35;101067.06;5109239;27;71623;-41
2023/05/03 02:40:11;;;;;;;;;;;;;;;33.20;54.87;101058.19;5106071;27;66597;-40
2023/05/03 02:42:44;;;;;;;;;;;;;;;33.25;53.98;101054.78;5106538;27;70677;-42
2023/05/03 02:45:20;;;;;;;;;;;;;;;33.28;53.89;101048.88;5097091;27;66716;-38
2023/05/03 02:47:50;;;;;;;;;;;;;;;33.30;53.66;101047.59;5122437;27;69856;-41
2023/05/03 02:50:23;;;;;;;;;;;;;;;33.34;53.63;101043.34;5104108;27;66436;-41
2023/05/03 02:52:53;;;;;;;;;;;;;;;33.40;53.29;101043.47;5122739;27;70295;-43
2023/05/03 02:55:24;;;;;;;;;;;;;;;33.43;53.17;101043.81;5121494;27;66660;-40
2023/05/03 02:57:55;;;;;;;;;;;;;;;33.47;53.04;101041.47;5125244;27;69973;-40
2023/05/03 03:00:25;;;;;;;;;;;;;;;33.53;53.18;101029.69;5100085;27;65935;-40
2023/05/03 03:02:55;;;;;;;;;;;;;;;33.57;52.66;101041.75;5116182;27;70214;-41
2023/05/03 03:05:26;;;;;;;;;;;;;;;33.59;52.42;101045.06;5081681;27;66590;-43
2023/05/03 03:07:56;;;;;;;;;;;;;;;33.62;52.75;101039.16;5097201;27;70264;-42
2023/05/03 03:10:28;;;;;;;;;;;;;;;33.67;52.22;101036.56;5114652;27;65364;-42
2023/05/03 03:12:59;;;;;;;;;;;;;;;33.70;52.18;101036.09;5082390;27;69886;-41
2023/05/03 03:15:35;;;;;;;;;;;;;;;33.75;52.63;101038.94;5084479;27;65573;-41
2023/05/03 03:18:06;;;;;;;;;;;;;;;33.78;52.92;101026.75;5111906;27;69431;-41
2023/05/03 03:20:36;;;;;;;;;;;;;;;33.84;52.77;101035.84;5101139;27;67072;-41
2023/05/03 03:23:07;;;;;;;;;;;;;;;33.90;52.35;101027.56;5117415;27;69705;-38
2023/05/03 03:25:37;;;;;;;;;;;;;;;33.93;52.31;101028.97;5105510;27;65757;-39
2023/05/03 03:28:07;;;;;;;;;;;;;;;33.97;52.27;101022.84;5104666;27;69292;-39
2023/05/03 03:30:38;;;;;;;;;;;;;;;33.98;52.57;101005.44;5092940;27;66534;-39
2023/05/03 03:33:18;;;;;;;;;;;;;;;34.04;51.95;101009.09;5108994;27;69922;-41
2023/05/03 03:35:55;;;;;;;;;;;;;;;34.07;51.92;101008.63;5121133;27;66916;-40
2023/05/03 03:38:49;;;;;;;;;;;;;;;34.06;52.56;101006.16;5113069;27;70628;-41
2023/05/03 03:41:54;;;;;;;;;;;;;;;34.10;52.14;101019.06;5122036;27;66381;-38
2023/05/03 03:44:31;;;;;;;;;;;;;;;34.18;51.77;101006.97;5107370;27;69905;-39
2023/05/03 03:47:04;;;;;;;;;;;;;;;34.16;51.47;101012.66;5103533;27;67067;-39
2023/05/03 03:49:37;;;;;;;;;;;;;;;34.21;50.69;101010.06;5114193;27;70283;-39
2023/05/03 03:52:25;;;;;;;;;;;;;;;34.29;50.96;101016.19;5127051;27;65238;-39
2023/05/03 03:54:58;;;;;;;;;;;;;;;34.33;51.56;101011.91;5124975;27;69502;-40
2023/05/03 03:57:34;;;;;;;;;;;;;;;34.34;51.32;101013.56;5121930;27;67335;-40
2023/05/03 04:00:17;;;;;;;;;;;;;;;34.37;51.52;101004.91;5115138;27;69785;-40
2023/05/03 04:03:03;;;;;;;;;;;;;;;34.45;51.15;101015.44;5104130;27;65802;-39
2023/05/03 04:05:42;;;;;;;;;;;;;;;34.47;50.36;101018.75;5128004;27;70018;-41
2023/05/03 04:08:21;;;;;;;;;;;;;;;34.46;49.89;101006.19;5083250;27;66583;-40
2023/05/03 04:10:58;;;;;;;;;;;;;;;34.49;49.96;101000.25;5093625;27;69981;-40
2023/05/03 04:13:47;;;;;;;;;;;;;;;34.54;49.60;101000.34;5085118;27;67400;-38
2023/05/03 04:16:18;;;;;;;;;;;;;;;34.55;49.59;101003.88;5124479;27;70095;-40
2023/05/03 04:18:51;;;;;;;;;;;;;;;34.50;50.29;100988.28;5097213;27;66936;-40
2023/05/03 04:21:24;;;;;;;;;;;;;;;34.37;48.17;100986.66;5123549;27;70628;-40
2023/05/03 04:23:59;;;;;;;;;;;;;;;34.22;46.22;100989.91;5121071;27;65724;-39
2023/05/03 04:26:34;;;;;;;;;;;;;;;34.12;44.46;100984.25;5100073;27;71128;-40
2023/05/03 04:29:19;;;;;;;;;;;;;;;33.98;42.91;100972.75;5128257;27;66766;-40
2023/05/03 04:31:50;;;;;;;;;;;;;;;33.88;42.30;100971.72;5103187;27;70041;-39
2023/05/03 04:34:22;;;;;;;;;;;;;;;33.78;41.89;100967.72;5087388;27;65994;-39
2023/05/03 04:36:55;;;;;;;;;;;;;;;33.68;41.33;100967.47;5103857;27;70595;-38
2023/05/03 04:39:27;;;;;;;;;;;;;;;33.60;40.29;100954.25;5104931;27;66066;-39
2023/05/03 04:41:58;;;;;;;;;;;;;;;33.52;40.08;100941.00;5114980;27;70319;-39
2023/05/03 04:44:29;;;;;;;;;;;;;;;33.48;39.75;100948.78;5104055;27;65033;-39
2023/05/03 04:47:01;;;;;;;;;;;;;;;33.33;40.00;100938.38;5086871;27;70073;-40
2023/05/03 04:49:33;;;;;;;;;;;;;;;33.14;40.09;100928.66;5103730;27;67710;-42
2023/05/03 04:52:03;;;;;;;;;;;;;;;33.01;40.02;100923.44;5100658;27;70074;-42
2023/05/03 04:54:35;;;;;;;;;;;;;;;32.90;40.44;100914.16;5104647;27;66441;-41
2023/05/03 04:57:09;;;;;;;;;;;;;;;32.77;41.49;100917.13;5110434;27;69372;-42
2023/05/03 04:59:40;;;;;;;;;;;;;;;32.69;42.19;100896.53;5103717;27;67562;-45
2023/05/03 05:02:14;;;;;;;;;;;;;;;32.62;42.41;100895.81;5065435;27;68709;-44
2023/05/03 05:04:46;;;;;;;;;;;;;;;32.54;42.82;100886.13;5094364;27;66680;-42
2023/05/03 05:07:18;;;;;;;;;;;;;;;32.56;42.89;100888.59;5126093;27;69455;-44
2023/05/03 05:09:52;;;;;;;;;;;;;;;32.48;42.83;100885.16;5097088;27;65399;-41
2023/05/03 05:12:24;;;;;;;;;;;;;;;32.46;42.77;100872.88;5122674;27;70047;-42
2023/05/03 05:14:55;;;;;;;;;;;;;;;32.44;43.12;100870.34;5115664;27;66015;-45
2023/05/03 05:17:28;;;;;;;;;;;;;;;32.47;42.85;100858.22;5120631;27;70411;-43
2023/05/03 05:20:02;;;;;;;;;;;;;;;32.42;43.16;100845.31;5105462;27;66917;-41
2023/05/03 05:22:46;;;;;;;;;;;;;;;32.45;43.18;100849.44;5105334;27;70498;-42
2023/05/03 05:25:17;;;;;;;;;;;;;;;32.43;43.19;100840.69;5107687;27;67288;-41
2023/05/03 05:27:48;;;;;;;;;;;;;;;32.41;43.40;100835.50;5100187;27;69665;-39
2023/05/03 05:30:23;;;;;;;;;;;;;;;32.41;42.93;100830.09;5121219;27;65449;-40
2023/05/03 05:32:58;;;;;;;;;;;;;;;32.41;42.99;100824.66;5103383;27;68439;-39
2023/05/03 05:35:40;;;;;;;;;;;;;;;32.38;42.57;100819.69;5128247;27;65410;-42
2023/05/03 05:38:11;;;;;;;;;;;;;;;32.38;42.19;100811.53;5101834;27;69367;-43
2023/05/03 05:40:43;;;;;;;;;;;;;;;32.34;41.76;100810.34;5104354;27;67032;-44
2023/05/03 05:43:19;;;;;;;;;;;;;;;32.32;40.95;100801.63;5098225;27;70654;-42
2023/05/03 05:45:52;;;;;;;;;;;;;;;32.33;40.50;100803.28;5096181;27;66015;-42
2023/05/03 05:48:24;;;;;;;;;;;;;;;32.25;40.24;100792.75;5111268;27;69685;-41
2023/05/03 05:50:56;;;;;;;;;;;;;;;32.25;40.26;100781.88;5098279;27;66712;-42
2023/05/03 05:53:27;;;;;;;;;;;;;;;32.26;39.85;100787.09;5100781;27;69276;-41
2023/05/03 05:56:07;;;;;;;;;;;;;;;32.24;39.79;100778.34;5118368;27;66218;-41
2023/05/03 05:58:44;;;;;;;;;;;;;;;32.22;39.23;100771.50;5112253;27;69830;-41
2023/05/03 06:01:28;;;;;;;;;;;;;;;32.22;39.50;100768.78;5110208;27;66544;-40
2023/05/03 06:04:07;;;;;;;;;;;;;;;32.17;39.12;100760.50;5096941;27;69375;-41
2023/05/03 06:06:41;;;;;;;;;;;;;;;32.09;39.27;100736.41;5098748;27;66903;-39
2023/05/03 06:09:11;;;;;;;;;;;;;;;32.19;38.92;100753.78;5130983;27;70441;-42
2023/05/03 06:11:56;;;;;;;;;;;;;;;32.25;38.74;100747.41;5133573;27;66037;-41
2023/05/03 06:14:28;;;;;;;;;;;;;;;32.26;38.97;100759.09;5112098;27;70626;-43
2023/05/03 06:16:59;;;;;;;;;;;;;;;32.24;38.92;100750.38;5110036;27;65542;-41
2023/05/03 06:19:29;;;;;;;;;;;;;;;32.23;38.49;100744.13;5131835;27;70255;-42
2023/05/03 06:21:59;;;;;;;;;;;;;;;32.24;38.51;100729.50;5108152;27;66297;-41
2023/05/03 06:24:31;;;;;;;;;;;;;;;32.24;38.55;100728.66;5118772;27;70390;-42
2023/05/03 06:27:01;;;;;;;;;;;;;;;32.24;38.35;100731.38;5106285;27;66307;-42
2023/05/03 06:29:33;;;;;;;;;;;;;;;32.20;38.30;100722.88;5097449;27;69420;-41
2023/05/03 06:32:03;;;;;;;;;;;;;;;32.19;38.62;100714.97;5111902;27;66209;-41
2023/05/03 06:34:34;;;;;;;;;;;;;;;32.23;38.38;100705.28;5111125;27;69262;-40
2023/05/03 06:37:04;;;;;;;;;;;;;;;32.22;38.81;100693.59;5092607;27;65325;-42
2023/05/03 06:39:34;;;;;;;;;;;;;;;32.28;38.36;100697.28;5095996;27;70425;-41
2023/05/03 06:42:06;;;;;;;;;;;;;;;32.27;38.49;100688.31;5101875;27;66857;-41
2023/05/03 06:44:40;;;;;;;;;;;;;;;32.31;38.58;100695.97;5121078;27;70301;-41
2023/05/03 06:47:10;;;;;;;;;;;;;;;32.31;38.13;100693.25;5109288;27;66471;-40
2023/05/03 06:49:40;;;;;;;;;;;;;;;32.30;37.96;100687.03;5106056;27;70127;-42
2023/05/03 06:52:12;;;;;;;;;;;;;;;32.33;38.27;100694.69;5105549;27;66012;-40
2023/05/03 06:54:43;;;;;;;;;;;;;;;32.34;38.12;100666.47;5123840;27;70281;-39
2023/05/03 06:57:14;;;;;;;;;;;;;;;32.38;38.11;100659.53;5121229;27;66466;-39
2023/05/03 06:59:44;;;;;;;;;;;;;;;32.42;38.37;100663.41;5133408;27;70302;-40
2023/05/03 07:02:15;;;;;;;;;;;;;;;32.42;38.25;100660.69;5119002;27;65898;-40
2023/05/03 07:04:45;;;;;;;;;;;;;;;32.40;38.07;100651.13;5131783;27;69997;-38
2023/05/03 07:07:16;;;;;;;;;;;;;;;32.63;43.51;100647.63;5100098;27;65239;-39
2023/05/03 07:09:46;;;;;;;;;;;;;;;32.90;46.59;100640.63;5129019;27;70363;-40
2023/05/03 07:12:17;;;;;;;;;;;;;;;33.16;48.22;100641.16;5117196;27;66986;-37
2023/05/03 07:14:51;;;;;;;;;;;;;;;33.36;49.41;100627.13;5134960;27;70029;-41
2023/05/03 07:17:22;;;;;;;;;;;;;;;33.51;49.91;100629.28;5123347;27;66748;-41
2023/05/03 07:19:56;;;;;;;;;;;;;;;33.65;50.90;100619.78;5102345;27;70051;-45
2023/05/03 07:22:26;;;;;;;;;;;;;;;33.75;51.28;100617.25;5108006;27;66277;-40
2023/05/03 07:24:58;;;;;;;;;;;;;;;33.86;51.33;100609.25;5122328;27;70564;-41
2023/05/03 07:27:33;;;;;;;;;;;;;;;33.97;51.22;100611.06;5124408;27;66797;-40
2023/05/03 07:30:05;;;;;;;;;;;;;;;34.04;51.30;100600.81;5122272;27;69568;-42
2023/05/03 07:32:37;;;;;;;;;;;;;;;34.10;51.52;100594.44;5107925;27;67050;-42
2023/05/03 07:35:08;;;;;;;;;;;;;;;34.17;51.46;100586.91;5120841;27;70577;-41
2023/05/03 07:37:38;;;;;;;;;;;;;;;34.23;51.48;100583.19;5124733;27;65925;-39
2023/05/03 07:40:09;;;;;;;;;;;;;;;34.29;51.43;100591.44;5121136;27;70807;-40
2023/05/03 07:42:40;;;;;;;;;;;;;;;34.35;51.37;100584.97;5103281;27;65787;-42
2023/05/03 07:45:10;;;;;;;;;;;;;;;34.44;51.06;100588.94;5118155;27;70742;-40
2023/05/03 07:47:40;;;;;;;;;;;;;;;34.50;51.24;100576.19;5123246;27;66662;-42
2023/05/03 07:50:11;;;;;;;;;;;;;;;34.52;50.96;100560.41;5125500;27;70601;-42
2023/05/03 07:52:42;;;;;;;;;;;;;;;34.53;51.29;100562.91;5122571;27;66486;-43
2023/05/03 07:55:12;;;;;;;;;;;;;;;34.60;51.40;100560.84;5123162;27;69995;-43
2023/05/03 07:57:42;;;;;;;;;;;;;;;34.61;51.02;100559.75;5105181;27;65888;-40
2023/05/03 08:00:13;;;;;;;;;;;;;;;34.65;51.68;100552.72;5121652;27;69704;-41
2023/05/03 08:02:43;;;;;;;;;;;;;;;34.69;51.73;100553.06;5106180;27;65517;-43
2023/05/03 08:05:14;;;;;;;;;;;;;;;34.75;51.01;100543.03;5109166;27;69791;-40
2023/05/03 08:07:45;;;;;;;;;;;;;;;34.78;51.49;100542.53;5120872;27;66070;-41
2023/05/03 08:10:15;;;;;;;;;;;;;;;34.81;51.20;100540.09;5131113;27;69094;-41
2023/05/03 08:12:46;;;;;;;;;;;;;;;34.83;51.33;100526.25;5123974;27;66421;-41
2023/05/03 08:15:16;;;;;;;;;;;;;;;34.84;51.36;100531.41;5110993;27;69735;-40
2023/05/03 08:17:47;;;;;;;;;;;;;;;34.89;51.20;100525.22;5118924;27;65615;-43
2023/05/03 08:20:20;;;;;;;;;;;;;;;34.91;51.58;100523.06;5119331;27;70218;-42
2023/05/03 08:22:51;;;;;;;;;;;;;;;34.92;51.75;100511.88;5106509;27;66492;-41
2023/05/03 08:25:23;;;;;;;;;;;;;;;34.95;51.76;100507.00;5085385;27;70075;-41
2023/05/03 08:27:54;;;;;;;;;;;;;;;34.98;51.38;100507.31;5105139;27;65604;-41
2023/05/03 08:30:25;;;;;;;;;;;;;;;35.02;52.00;100503.00;5117798;27;70522;-40
2023/05/03 08:32:56;;;;;;;;;;;;;;;35.03;51.83;100501.09;5111763;27;67819;-41
2023/05/03 08:35:26;;;;;;;;;;;;;;;35.07;51.55;100489.44;5125805;27;69983;-40
2023/05/03 08:37:57;;;;;;;;;;;;;;;35.07;51.55;100504.97;5131115;27;67130;-41
2023/05/03 08:40:28;;;;;;;;;;;;;;;35.08;51.27;100491.09;5118690;27;69740;-41
2023/05/03 08:42:58;;;;;;;;;;;;;;;35.09;50.87;100498.19;5129831;27;66995;-41
2023/05/03 08:45:32;;;;;;;;;;;;;;;35.13;51.00;100490.28;5107592;27;70803;-40
2023/05/03 08:48:03;;;;;;;;;;;;;;;35.14;50.67;100491.97;5132262;27;65563;-41
2023/05/03 08:50:40;;;;;;;;;;;;;;;35.13;51.07;100495.75;5122891;27;70027;-42
2023/05/03 08:53:11;;;;;;;;;;;;;;;35.31;50.74;100497.28;5126026;27;66992;-42
2023/05/03 08:55:41;;;;;;;;;;;;;;;35.46;49.46;100505.56;5124822;27;70071;-42
2023/05/03 08:58:12;;;;;;;;;;;;;;;35.57;49.92;100501.88;5105955;27;67074;-43
2023/05/03 09:00:43;;;;;;;;;;;;;;;35.66;49.55;100501.38;5123340;27;70671;-45
2023/05/03 09:03:15;;;;;;;;;;;;;;;35.71;48.83;100499.50;5105759;27;65835;-41
2023/05/03 09:05:45;;;;;;;;;;;;;;;35.75;48.74;100497.91;5126900;27;70185;-43
2023/05/03 09:08:16;;;;;;;;;;;;;;;35.41;48.76;100433.81;5120954;27;66761;-42
2023/05/03 09:10:46;;;;;;;;;;;;;;;35.83;49.45;100496.63;5122552;27;70545;-44
2023/05/03 09:13:16;;;;;;;;;;;;;;;35.87;49.32;100492.25;5122322;27;66793;-41
2023/05/03 09:15:53;;;;;;;;;;;;;;;35.90;49.35;100508.09;5126647;27;69206;-42
2023/05/03 09:18:25;;;;;;;;;;;;;;;35.93;49.39;100493.09;5122127;27;66186;-43
2023/05/03 09:20:56;;;;;;;;;;;;;;;35.94;48.89;100498.31;5119085;27;69720;-42
2023/05/03 09:23:27;;;;;;;;;;;;;;;35.96;49.66;100501.59;5114974;27;66153;-43
2023/05/03 09:25:58;;;;;;;;;;;;;;;35.98;49.03;100504.06;5116946;27;70380;-44
2023/05/03 09:28:29;;;;;;;;;;;;;;;35.99;49.62;100494.78;5099994;27;64896;-43
2023/05/03 09:31:06;;;;;;;;;;;;;;;36.00;49.19;100505.44;5119886;27;70421;-42
2023/05/03 09:33:37;;;;;;;;;;;;;;;36.01;49.18;100514.44;5106952;27;66612;-42
2023/05/03 09:36:08;;;;;;;;;;;;;;;36.00;49.67;100516.38;5108683;27;70976;-42
2023/05/03 09:38:38;;;;;;;;;;;;;;;36.01;49.08;100518.00;5091654;27;65691;-43
2023/05/03 09:41:09;;;;;;;;;;;;;;;36.01;49.20;100518.00;5137644;27;70615;-42
2023/05/03 09:43:51;;;;;;;;;;;;;;;36.02;49.08;100508.75;5140537;27;66926;-43
2023/05/03 09:46:26;;;;;;;;;;;;;;;36.01;49.55;100525.38;5128498;27;70694;-42
2023/05/03 09:48:57;;;;;;;;;;;;;;;35.85;49.56;100516.25;5140817;27;65675;-43
2023/05/03 09:51:28;;;;;;;;;;;;;;;35.85;49.85;100516.25;5137798;27;68759;-40
2023/05/03 09:53:58;;;;;;;;;;;;;;;35.89;50.46;100528.31;5139592;27;66281;-41
2023/05/03 09:56:29;;;;;;;;;;;;;;;35.92;50.31;100527.78;5138314;27;72015;-43
2023/05/03 09:59:00;;;;;;;;;;;;;;;35.54;50.21;100456.00;5122642;27;66610;-42
2023/05/03 10:01:31;;;;;;;;;;;;;;;35.94;50.65;100513.84;5135702;27;69239;-43
2023/05/03 10:04:02;;;;;;;;;;;;;;;35.95;51.12;100520.97;5130447;27;65270;-44
2023/05/03 10:06:35;;;;;;;;;;;;;;;35.96;50.24;100523.41;5130641;27;70098;-43
2023/05/03 10:09:13;;;;;;;;;;;;;;;35.93;50.81;100518.50;5139159;27;65955;-44
2023/05/03 10:11:47;;;;;;;;;;;;;;;35.92;50.79;100516.84;5138151;27;70321;-42
2023/05/03 10:14:18;;;;;;;;;;;;;;;35.93;50.60;100523.94;5137293;27;66889;-43
2023/05/03 10:16:51;;;;;;;;;;;;;;;35.94;51.11;100531.06;5119579;27;69769;-43
2023/05/03 10:19:24;;;;;;;;;;;;;;;35.93;51.29;100528.59;5133641;27;66203;-43
2023/05/03 10:21:56;;;;;;;;;;;;;;;35.92;50.81;100525.03;5132909;27;70072;-43
2023/05/03 10:24:26;;;;;;;;;;;;;;;35.92;51.47;100527.78;5133758;27;67140;-43
2023/05/03 10:26:56;;;;;;;;;;;;;;;35.89;50.86;100533.75;5129935;27;71029;-43
2023/05/03 10:29:44;;;;;;;;;;;;;;;35.90;51.48;100534.59;5133969;27;66505;-42
2023/05/03 10:32:28;;;;;;;;;;;;;;;35.88;51.40;100543.00;5130628;27;69261;-43
2023/05/03 10:35:05;;;;;;;;;;;;;;;35.88;50.61;100551.19;5136934;27;67125;-43
2023/05/03 10:37:37;;;;;;;;;;;;;;;35.87;50.91;100549.56;5132235;27;70376;-42
2023/05/03 10:40:09;;;;;;;;;;;;;;;35.69;50.85;100549.97;5133125;27;66922;-41
2023/05/03 10:42:43;;;;;;;;;;;;;;;35.47;51.59;100548.16;5136732;27;70273;-42
2023/05/03 10:45:24;;;;;;;;;;;;;;;35.27;52.57;100556.97;5137033;27;65977;-44
2023/05/03 10:48:15;;;;;;;;;;;;;;;35.08;53.57;100551.06;5134854;27;70333;-42
2023/05/03 10:50:46;;;;;;;;;;;;;;;35.02;53.79;100567.56;5104227;27;66701;-42
2023/05/03 11:06:47;;;;;;;;;;;;;;;34.73;55.62;100595.03;5094603;27;67518;-38
2023/05/03 11:09:19;;;;;;;;;;;;;;;34.59;55.74;100600.03;5085958;27;70108;-36
2023/05/03 11:11:50;;;;;;;;;;;;;;;34.28;53.91;100603.41;5094978;27;65387;-35
2023/05/03 11:14:21;;;;;;;;;;;;;;;34.04;52.06;100606.28;5090267;27;69928;-37
2023/05/03 11:16:55;;;;;;;;;;;;;;;33.80;50.98;100606.44;5088297;27;67492;-37
2023/05/03 11:19:27;;;;;;;;;;;;;;;33.67;50.01;100614.94;5094899;27;69561;-37
2023/05/03 11:21:58;;;;;;;;;;;;;;;33.53;48.56;100622.56;5090313;27;66547;-35
2023/05/03 11:24:31;;;;;;;;;;;;;;;33.43;48.26;100621.53;5093935;27;70242;-38
2023/05/03 11:27:02;;;;;;;;;;;;;;;33.35;47.43;100634.47;5096952;27;67730;-36
2023/05/03 11:29:38;;;;;;;;;;;;;;;33.22;47.02;100645.63;5092694;27;70561;-37
2023/05/03 11:32:09;;;;;;;;;;;;;;;33.10;46.77;100644.84;5086517;27;66186;-37
2023/05/03 11:34:40;;;;;;;;;;;;;;;33.05;46.29;100652.88;5092009;27;70262;-36
2023/05/03 11:37:11;;;;;;;;;;;;;;;33.01;46.42;100657.97;5083200;27;65218;-37
2023/05/03 11:39:42;;;;;;;;;;;;;;;33.00;46.13;100658.22;5082936;27;69372;-38
2023/05/03 11:42:13;;;;;;;;;;;;;;;32.98;45.41;100668.47;5086064;27;65829;-37
2023/05/03 11:44:44;;;;;;;;;;;;;;;32.94;44.89;100662.69;5085110;27;71094;-37
2023/05/03 11:47:15;;;;;;;;;;;;;;;32.89;44.66;100659.84;5084751;27;66050;-36
2023/05/03 11:49:56;;;;;;;;;;;;;;;32.83;44.30;100667.06;5077777;27;70683;-39
2023/05/03 11:52:27;;;;;;;;;;;;;;;32.80;44.06;100667.56;5087110;27;66715;-36
2023/05/03 11:55:00;;;;;;;;;;;;;;;32.75;44.41;100675.59;5080385;27;70254;-36
2023/05/03 11:57:32;;;;;;;;;;;;;;;32.74;44.52;100673.13;5085148;27;66111;-35
2023/05/03 12:00:21;;;;;;;;;;;;;;;32.70;44.40;100680.91;5075884;28;69843;-36
2023/05/03 12:02:52;;;;;;;;;;;;;;;32.68;44.39;100677.59;5083979;27;66044;-36
2023/05/03 12:05:23;;;;;;;;;;;;;;;32.64;44.65;100690.81;5101088;27;70592;-36
2023/05/03 12:07:55;;;;;;;;;;;;;;;32.63;44.41;100686.47;5124279;27;65533;-36
2023/05/03 12:10:32;;;;;;;;;;;;;;;32.59;44.02;100681.75;5123445;27;70495;-38
2023/05/03 12:13:04;;;;;;;;;;;;;;;32.60;44.74;100683.41;5121340;27;66039;-38
2023/05/03 12:15:38;;;;;;;;;;;;;;;32.54;44.37;100687.03;5124288;27;70161;-37
2023/05/03 12:18:12;;;;;;;;;;;;;;;32.49;43.94;100688.59;5118085;27;66275;-36
2023/05/03 12:20:43;;;;;;;;;;;;;;;32.46;44.16;100686.34;5130972;27;70150;-37
2023/05/03 12:23:17;;;;;;;;;;;;;;;32.43;43.78;100684.09;5121293;27;65565;-36
2023/05/03 12:25:50;;;;;;;;;;;;;;;32.39;43.81;100688.31;5110852;27;70467;-33
2023/05/03 12:28:37;;;;;;;;;;;;;;;32.40;44.61;100689.97;5122142;27;68173;-36
2023/05/03 12:31:11;;;;;;;;;;;;;;;32.36;43.89;100694.22;5119183;27;69427;-38
2023/05/03 12:33:47;;;;;;;;;;;;;;;32.36;43.91;100699.66;5086948;27;65868;-36
2023/05/03 12:36:37;;;;;;;;;;;;;;;32.32;43.67;100703.06;5117465;27;69173;-35
2023/05/03 12:39:12;;;;;;;;;;;;;;;32.25;43.06;100700.47;5127480;27;65971;-35
2023/05/03 12:41:44;;;;;;;;;;;;;;;32.20;42.89;100711.19;5119223;27;69782;-37
2023/05/03 12:44:19;;;;;;;;;;;;;;;32.14;42.21;100709.41;5119956;27;67205;-36
2023/05/03 12:46:51;;;;;;;;;;;;;;;32.12;41.83;100719.66;5119247;27;70825;-37
2023/05/03 13:03:26;;;;;;;;;;;;;;;31.82;40.56;100726.75;5122338;27;70556;-35
2023/05/03 13:06:06;;;;;;;;;;;;;;;31.78;40.69;100725.53;5129593;27;66888;-35
2023/05/03 13:08:41;;;;;;;;;;;;;;;31.75;40.67;100714.34;5125390;27;70321;-36
2023/05/03 13:11:19;;;;;;;;;;;;;;;31.73;40.57;100711.88;5121721;27;66153;-35
2023/05/03 13:13:51;;;;;;;;;;;;;;;31.70;40.82;100708.78;5105889;27;69440;-38
2023/05/03 13:16:23;;;;;;;;;;;;;;;31.68;41.37;100716.31;5120609;27;65613;-38
2023/05/03 13:18:55;;;;;;;;;;;;;;;31.64;41.43;100705.09;5120725;27;69593;-35
2023/05/03 13:21:26;;;;;;;;;;;;;;;31.73;46.41;100725.44;5118905;27;67319;-36
2023/05/03 13:23:57;;;;;;;;;;;;;;;31.72;45.81;100720.22;5121925;27;70308;-35
2023/05/03 13:26:29;;;;;;;;;;;;;;;31.70;45.43;100720.44;5085425;27;65724;-38
2023/05/03 13:29:00;;;;;;;;;;;;;;;31.74;45.77;100727.06;5119901;27;69993;-38
2023/05/03 13:31:31;;;;;;;;;;;;;;;31.71;44.43;100729.44;5122210;27;65766;-36
2023/05/03 13:34:01;;;;;;;;;;;;;;;31.68;44.27;100729.88;5082738;27;70344;-36